Latest Weather Observations for Ocean Reef

IDW60901

Issued at 2:21 pm WST Monday 23 January 2017 (issued every 10 minutes, with the page automatically refreshed every 10 minutes)

About weather observations | Map of Perth area stations | Latest observations for Perth area | Other Formats
Station Details ID: 009214 Name: OCEAN REEF Lat: -31.76 Lon: 115.73 Height: 10.0 m
Data from the previous 72 hours. | See also: Recent months at Ocean Reef
Date/Time
WST
Temp
°C
App
Temp
°C
Dew
Point
°C
Rel
Hum
%
Delta-T
°C
Wind Press
QNH
hPa
Press
MSL
hPa
Rain since
9am
mm
Dir  Spd
km/h
Gust
km/h
Spd
kts
Gust
kts
23/02:00pm - - - - - SSW 35 41 19 22 - - -
23/01:30pm - - - - - SSW 35 41 19 22 - - -
23/01:00pm - - - - - SSW 33 39 18 21 - - -
23/12:30pm - - - - - SSW 32 39 17 21 - - -
23/12:00pm - - - - - SSW 28 33 15 18 - - -
23/11:30am - - - - - SSW 28 33 15 18 - - -
23/11:00am - - - - - SSW 28 35 15 19 - - -
23/10:30am - - - - - SSW 28 33 15 18 - - -
23/10:00am - - - - - SSW 22 28 12 15 - - -
23/09:30am - - - - - S 22 30 12 16 - - -
23/09:00am - - - - - S 19 26 10 14 - - -
23/08:30am - - - - - SSE 13 17 7 9 - - -
23/08:00am - - - - - SE 13 19 7 10 - - -
23/07:30am - - - - - ESE 13 17 7 9 - - -
23/07:00am - - - - - ESE 13 17 7 9 - - -
23/06:30am - - - - - ESE 13 17 7 9 - - -
23/06:00am - - - - - ESE 13 17 7 9 - - -
23/05:30am - - - - - ESE 13 15 7 8 - - -
23/05:00am - - - - - SE 15 17 8 9 - - -
23/04:30am - - - - - SE 13 15 7 8 - - -
23/04:00am - - - - - ESE 13 17 7 9 - - -
23/03:30am - - - - - SE 15 20 8 11 - - -
23/03:00am - - - - - SE 15 19 8 10 - - -
23/02:30am - - - - - SE 15 20 8 11 - - -
23/02:00am - - - - - S 33 41 18 22 - - -
23/01:30am - - - - - SSW 35 41 19 22 - - -
23/01:00am - - - - - S 35 43 19 23 - - -
23/12:30am - - - - - SSW 37 46 20 25 - - -
23/12:00am - - - - - SSW 39 46 21 25 - - -
 
Date/Time
WST
Temp
°C
App
Temp
°C
Dew
Point
°C
Rel
Hum
%
Delta-T
°C
Wind Press
QNH
hPa
Press
MSL
hPa
Rain since
9am
mm
Dir  Spd
km/h
Gust
km/h
Spd
kts
Gust
kts
22/11:30pm - - - - - S 37 46 20 25 - - -
22/11:00pm - - - - - S 37 46 20 25 - - -
22/10:30pm - - - - - SSW 37 46 20 25 - - -
22/10:00pm - - - - - SSW 37 50 20 27 - - -
22/09:30pm - - - - - SSW 43 52 23 28 - - -
22/09:00pm - - - - - SSW 39 50 21 27 - - -
22/08:30pm - - - - - SSW 39 48 21 26 - - -
22/08:00pm - - - - - SSW 39 48 21 26 - - -
22/07:30pm - - - - - SSW 41 50 22 27 - - -
22/07:00pm - - - - - SSW 39 48 21 26 - - -
22/06:30pm - - - - - SSW 39 48 21 26 - - -
22/06:00pm - - - - - SW 41 50 22 27 - - -
22/05:30pm - - - - - SW 37 48 20 26 - - -
22/05:00pm - - - - - SSW 37 44 20 24 - - -
22/04:30pm - - - - - SSW 39 46 21 25 - - -
22/04:00pm - - - - - SSW 37 44 20 24 - - -
22/03:30pm - - - - - SW 37 44 20 24 - - -
22/03:00pm - - - - - SSW 39 48 21 26 - - -
22/02:30pm - - - - - SSW 39 44 21 24 - - -
22/02:00pm - - - - - SSW 39 50 21 27 - - -
22/01:30pm - - - - - SSW 41 50 22 27 - - -
22/01:00pm - - - - - SSW 43 52 23 28 - - -
22/12:30pm - - - - - SSW 41 50 22 27 - - -
22/12:00pm - - - - - SSW 43 52 23 28 - - -
22/11:30am - - - - - SSW 43 50 23 27 - - -
22/11:00am - - - - - SSW 39 48 21 26 - - -
22/10:30am - - - - - SSW 39 48 21 26 - - -
22/10:00am - - - - - SSW 39 48 21 26 - - -
22/09:30am - - - - - S 35 44 19 24 - - -
22/09:00am - - - - - S 37 46 20 25 - - -
22/08:30am - - - - - S 35 43 19 23 - - -
22/08:00am - - - - - S 37 46 20 25 - - -
22/07:30am - - - - - S 39 50 21 27 - - -
22/07:00am - - - - - S 41 54 22 29 - - -
22/06:30am - - - - - S 39 52 21 28 - - -
22/06:00am - - - - - S 41 54 22 29 - - -
22/05:30am - - - - - S 39 54 21 29 - - -
22/05:00am - - - - - S 39 48 21 26 - - -
22/04:30am - - - - - S 35 46 19 25 - - -
22/04:00am - - - - - S 39 50 21 27 - - -
22/03:30am - - - - - S 43 52 23 28 - - -
22/03:00am - - - - - S 41 50 22 27 - - -
22/02:30am - - - - - SSW 41 52 22 28 - - -
22/02:00am - - - - - SSW 39 48 21 26 - - -
22/01:30am - - - - - SSW 39 46 21 25 - - -
22/01:00am - - - - - S 37 44 20 24 - - -
22/12:30am - - - - - SSW 37 44 20 24 - - -
22/12:00am - - - - - S 37 46 20 25 - - -
 
Date/Time
WST
Temp
°C
App
Temp
°C
Dew
Point
°C
Rel
Hum
%
Delta-T
°C
Wind Press
QNH
hPa
Press
MSL
hPa
Rain since
9am
mm
Dir  Spd
km/h
Gust
km/h
Spd
kts
Gust
kts
21/11:30pm - - - - - S 41 48 22 26 - - -
21/11:00pm - - - - - SSW 39 46 21 25 - - -
21/10:30pm - - - - - SSW 37 43 20 23 - - -
21/10:00pm - - - - - SSW 37 44 20 24 - - -
21/09:30pm - - - - - SSW 37 44 20 24 - - -
21/09:00pm - - - - - SSW 35 44 19 24 - - -
21/08:30pm - - - - - SSW 35 41 19 22 - - -
21/08:00pm - - - - - SSW 37 43 20 23 - - -
21/07:30pm - - - - - SSW 39 46 21 25 - - -
21/07:00pm - - - - - SSW 37 44 20 24 - - -
21/06:30pm - - - - - SSW 35 44 19 24 - - -
21/06:00pm - - - - - SSW 37 44 20 24 - - -
21/05:30pm - - - - - SSW 35 41 19 22 - - -
21/05:00pm - - - - - SSW 37 44 20 24 - - -
21/04:30pm - - - - - SSW 35 46 19 25 - - -
21/04:00pm - - - - - SSW 35 46 19 25 - - -
21/03:30pm - - - - - SSW 35 41 19 22 - - -
21/03:00pm - - - - - SSW 33 39 18 21 - - -
21/02:30pm - - - - - SSW 30 35 16 19 - - -
21/02:00pm - - - - - SSW 30 37 16 20 - - -
21/01:30pm - - - - - SSW 32 37 17 20 - - -
21/01:00pm - - - - - SSW 30 35 16 19 - - -
21/12:30pm - - - - - SSW 28 33 15 18 - - -
21/12:00pm - - - - - SSW 26 30 14 16 - - -
21/11:30am - - - - - SSW 24 28 13 15 - - -
21/11:00am - - - - - SSW 28 32 15 17 - - -
21/10:30am - - - - - SSW 28 33 15 18 - - -
21/10:00am - - - - - S 28 32 15 17 - - -
21/09:30am - - - - - S 28 32 15 17 - - -
21/09:00am - - - - - S 26 32 14 17 - - -
21/08:30am - - - - - S 19 26 10 14 - - -
21/08:00am - - - - - SSE 17 22 9 12 - - -
21/07:30am - - - - - S 13 15 7 8 - - -
21/07:00am - - - - - SSE 11 15 6 8 - - -
21/06:30am - - - - - SSE 13 13 7 7 - - -
21/06:00am - - - - - SE 11 13 6 7 - - -
21/05:30am - - - - - SSE 11 13 6 7 - - -
21/05:00am - - - - - SSW 9 13 5 7 - - -
21/04:30am - - - - - ESE 7 9 4 5 - - -
21/04:00am - - - - - E 7 9 4 5 - - -
21/03:30am - - - - - SE 11 15 6 8 - - -
21/03:00am - - - - - SE 15 19 8 10 - - -
21/02:30am - - - - - SE 13 15 7 8 - - -
21/02:00am - - - - - SSE 13 17 7 9 - - -
21/01:30am - - - - - S 24 28 13 15 - - -
21/01:00am - - - - - SSW 26 30 14 16 - - -
21/12:30am - - - - - SSW 26 30 14 16 - - -
21/12:00am - - - - - S 24 28 13 15 - - -
 
Date/Time
WST
Temp
°C
App
Temp
°C
Dew
Point
°C
Rel
Hum
%
Delta-T
°C
Wind Press
QNH
hPa
Press
MSL
hPa
Rain since
9am
mm
Dir  Spd
km/h
Gust
km/h
Spd
kts
Gust
kts
20/11:30pm - - - - - S 24 30 13 16 - - -
20/11:00pm - - - - - S 28 33 15 18 - - -
20/10:30pm - - - - - S 28 32 15 17 - - -
20/10:00pm - - - - - S 30 35 16 19 - - -
20/09:30pm - - - - - S 30 35 16 19 - - -
20/09:00pm - - - - - S 32 39 17 21 - - -
20/08:30pm - - - - - S 33 41 18 22 - - -
20/08:00pm - - - - - S 35 43 19 23 - - -
20/07:30pm - - - - - S 33 43 18 23 - - -
20/07:00pm - - - - - SSW 35 41 19 22 - - -
20/06:30pm - - - - - SSW 33 39 18 21 - - -
20/06:00pm - - - - - SSW 32 37 17 20 - - -
20/05:30pm - - - - - SSW 33 39 18 21 - - -
20/05:00pm - - - - - SSW 32 37 17 20 - - -
20/04:30pm - - - - - S 32 35 17 19 - - -
20/04:00pm - - - - - SSW 32 35 17 19 - - -
20/03:30pm - - - - - SSW 32 39 17 21 - - -
20/03:00pm - - - - - SSW 32 39 17 21 - - -
20/02:30pm - - - - - SSW 33 39 18 21 - - -

Latest Capital City Observations: Canberra | Sydney | Melbourne | Brisbane | Adelaide | Perth | Hobart | Darwin

Other Formats:

Comma delimited format used in spreadsheet applications
http://www.bom.gov.au/fwo/IDW60901/IDW60901.94607.axf

JavaScript Object Notation format (JSON) in row-major order
http://www.bom.gov.au/fwo/IDW60901/IDW60901.94607.json